createdAt,value
2016-12-02T00:01:53.806Z,8.79
2016-12-02T00:04:48.505Z,8.77
2016-12-02T00:07:43.116Z,8.74
2016-12-02T00:10:37.764Z,8.73
2016-12-02T00:13:32.351Z,8.71
2016-12-02T00:16:26.872Z,8.69
2016-12-02T00:19:21.505Z,8.67
2016-12-02T00:22:16.122Z,8.69
2016-12-02T00:25:10.723Z,8.67
2016-12-02T00:28:05.241Z,8.67
2016-12-02T00:30:59.862Z,8.65
2016-12-02T00:33:54.513Z,8.65
2016-12-02T00:36:49.267Z,8.63
2016-12-02T00:39:43.988Z,8.57
2016-12-02T00:42:38.549Z,8.54
2016-12-02T00:45:33.014Z,8.54
2016-12-02T00:48:27.686Z,8.52
2016-12-02T00:51:22.231Z,8.48
2016-12-02T00:54:16.861Z,8.43
2016-12-02T00:57:11.479Z,8.39
2016-12-02T01:00:06.169Z,8.36
2016-12-02T01:03:00.710Z,8.29
2016-12-02T01:05:55.204Z,8.24
2016-12-02T01:08:49.821Z,8.20
2016-12-02T01:11:44.314Z,8.18
2016-12-02T01:14:38.892Z,8.15
2016-12-02T01:17:33.471Z,8.12
2016-12-02T01:20:27.990Z,8.10
2016-12-02T01:23:22.504Z,8.04
2016-12-02T01:26:17.169Z,8.03
2016-12-02T01:29:11.676Z,8.01
2016-12-02T01:32:06.211Z,7.96
2016-12-02T01:35:00.757Z,7.94
2016-12-02T01:37:55.681Z,7.94
2016-12-02T01:40:50.232Z,7.94
2016-12-02T01:43:44.851Z,7.93
2016-12-02T01:46:39.405Z,7.90
2016-12-02T01:49:33.905Z,7.88
2016-12-02T01:52:28.554Z,7.87
2016-12-02T01:55:23.239Z,7.83
2016-12-02T01:58:17.886Z,7.84
2016-12-02T02:01:12.445Z,7.83
2016-12-02T02:04:07.048Z,7.82
2016-12-02T02:07:01.596Z,7.79
2016-12-02T02:09:56.155Z,7.78
2016-12-02T02:12:50.806Z,7.76
2016-12-02T02:15:45.306Z,7.74
2016-12-02T02:18:39.881Z,7.75
2016-12-02T02:21:34.385Z,7.73
2016-12-02T02:24:28.976Z,7.73
2016-12-02T02:27:23.577Z,7.73
2016-12-02T02:30:18.148Z,7.73
2016-12-02T02:33:12.805Z,7.74
2016-12-02T02:36:07.269Z,7.72
2016-12-02T02:39:01.809Z,7.71
2016-12-02T02:41:56.424Z,7.72
2016-12-02T02:44:51.022Z,7.70
2016-12-02T02:47:45.624Z,7.69
2016-12-02T02:50:40.138Z,7.68
2016-12-02T02:53:34.660Z,7.67
2016-12-02T02:56:29.114Z,7.66
2016-12-02T02:59:23.639Z,7.59
2016-12-02T03:02:18.240Z,7.54
2016-12-02T03:05:12.725Z,7.52
2016-12-02T03:08:07.306Z,7.51
2016-12-02T03:11:01.889Z,7.48
2016-12-02T03:13:56.481Z,7.44
2016-12-02T03:16:51.004Z,7.36
2016-12-02T03:19:45.528Z,7.31
2016-12-02T03:22:40.093Z,7.29
2016-12-02T03:25:34.532Z,7.25
2016-12-02T03:28:29.062Z,7.23
2016-12-02T03:31:23.665Z,7.20
2016-12-02T03:34:18.270Z,7.18
2016-12-02T03:45:56.357Z,7.08
2016-12-02T03:48:50.718Z,7.05
2016-12-02T03:51:45.569Z,7.00
2016-12-02T03:54:39.997Z,6.97
2016-12-02T03:57:34.538Z,6.95
2016-12-02T04:00:28.966Z,6.93
2016-12-02T04:03:23.476Z,6.97
2016-12-02T04:06:17.924Z,6.99
2016-12-02T04:09:12.510Z,7.02
2016-12-02T04:12:06.955Z,7.03
2016-12-02T04:15:01.550Z,7.05
2016-12-02T04:17:56.080Z,7.07
2016-12-02T04:20:50.556Z,7.07
2016-12-02T04:23:44.948Z,7.00
2016-12-02T04:26:39.408Z,6.91
2016-12-02T04:29:33.946Z,6.88
2016-12-02T04:32:28.429Z,6.81
2016-12-02T04:35:22.895Z,6.77
2016-12-02T04:38:17.358Z,6.72
2016-12-02T04:41:11.798Z,6.66
2016-12-02T04:44:06.283Z,6.64
2016-12-02T04:47:00.772Z,6.62
2016-12-02T04:49:55.145Z,6.60
2016-12-02T04:52:49.676Z,6.58
2016-12-02T04:55:44.188Z,6.54
2016-12-02T04:58:38.591Z,6.51
2016-12-02T05:01:33.128Z,6.49
2016-12-02T05:04:27.472Z,6.48
2016-12-02T05:07:21.896Z,6.46
2016-12-02T05:10:16.323Z,6.45
2016-12-02T05:13:10.673Z,6.41
2016-12-02T05:16:05.240Z,6.38
2016-12-02T05:18:59.699Z,6.34
2016-12-02T05:21:54.122Z,6.32
2016-12-02T05:24:48.561Z,6.29
2016-12-02T05:27:43.018Z,6.27
2016-12-02T05:30:37.475Z,6.25
2016-12-02T05:33:31.823Z,6.23
2016-12-02T05:36:26.381Z,6.23
2016-12-02T05:39:20.699Z,6.23
2016-12-02T05:42:15.157Z,6.19
2016-12-02T05:45:09.545Z,6.16
2016-12-02T05:48:03.985Z,6.12
2016-12-02T05:50:58.471Z,6.09
2016-12-02T05:53:52.824Z,6.03
2016-12-02T05:56:47.273Z,6.00
2016-12-02T05:59:41.680Z,5.97
2016-12-02T06:02:35.985Z,5.94
2016-12-02T06:05:30.448Z,5.91
2016-12-02T06:08:24.756Z,5.86
2016-12-02T06:11:19.245Z,5.82
2016-12-02T06:14:13.551Z,5.75
2016-12-02T06:17:07.998Z,5.69
2016-12-02T06:20:02.392Z,5.66
2016-12-02T06:22:56.703Z,5.59
2016-12-02T06:25:50.982Z,5.56
2016-12-02T06:28:45.222Z,5.49
2016-12-02T06:31:39.643Z,5.43
2016-12-02T06:34:34.090Z,5.40
2016-12-02T06:37:28.375Z,5.35
2016-12-02T06:40:22.866Z,5.31
2016-12-02T06:43:17.260Z,5.29
2016-12-02T06:46:11.558Z,5.25
2016-12-02T06:49:05.906Z,5.23
2016-12-02T06:52:00.784Z,5.19
2016-12-02T06:54:55.183Z,5.16
2016-12-02T06:57:49.488Z,5.14
2016-12-02T07:00:43.896Z,5.10
2016-12-02T07:03:38.253Z,5.06
2016-12-02T07:06:32.589Z,5.03
2016-12-02T07:09:26.996Z,5.01
2016-12-02T07:12:21.167Z,4.99
2016-12-02T07:15:15.367Z,4.98
2016-12-02T07:18:09.718Z,4.95
2016-12-02T07:21:04.060Z,4.93
2016-12-02T07:23:58.398Z,4.92
2016-12-02T07:26:52.655Z,4.89
2016-12-02T07:29:46.914Z,4.87
2016-12-02T07:32:41.300Z,4.86
2016-12-02T07:35:35.529Z,4.83
2016-12-02T07:38:29.852Z,4.82
2016-12-02T07:41:24.193Z,4.81
2016-12-02T07:44:18.494Z,4.81
2016-12-02T07:47:13.759Z,4.81
2016-12-02T07:50:07.116Z,4.85
2016-12-02T07:53:01.382Z,4.89
2016-12-02T07:55:55.677Z,4.93
2016-12-02T07:58:50.212Z,5.04
2016-12-02T08:01:44.578Z,5.32
2016-12-02T08:07:33.640Z,6.08
2016-12-02T08:10:28.273Z,6.53
2016-12-02T08:13:22.907Z,6.94
2016-12-02T08:16:17.497Z,7.22
2016-12-02T08:19:12.064Z,7.41
2016-12-02T08:22:07.182Z,7.59
2016-12-02T08:25:01.936Z,7.69
2016-12-02T08:27:56.581Z,7.74
2016-12-02T08:30:51.189Z,7.63
2016-12-02T08:33:45.798Z,7.63
2016-12-02T08:36:40.429Z,7.71
2016-12-02T08:39:35.110Z,7.72
2016-12-02T08:42:29.801Z,7.78
2016-12-02T08:45:24.555Z,7.85
2016-12-02T08:48:19.198Z,7.94
2016-12-02T08:51:13.758Z,7.77
2016-12-02T08:54:08.347Z,7.91
2016-12-02T08:57:03.122Z,8.14
2016-12-02T08:59:57.844Z,8.18
2016-12-02T09:02:52.522Z,8.30
2016-12-02T09:05:47.200Z,8.30
2016-12-02T09:08:41.886Z,8.18
2016-12-02T09:11:36.508Z,8.20
2016-12-02T09:14:31.114Z,8.19
2016-12-02T09:17:25.736Z,8.17
2016-12-02T09:20:20.246Z,8.14
2016-12-02T09:23:14.970Z,8.29
2016-12-02T09:26:09.632Z,8.45
2016-12-02T09:29:04.477Z,8.59
2016-12-02T09:31:59.375Z,8.56
2016-12-02T09:34:54.025Z,8.76
2016-12-02T09:37:48.786Z,8.98
2016-12-02T09:40:43.482Z,8.89
2016-12-02T09:43:38.114Z,8.78
2016-12-02T09:46:32.776Z,8.80
2016-12-02T09:49:27.600Z,8.94
2016-12-02T09:52:22.352Z,8.97
2016-12-02T09:55:17.041Z,9.13
2016-12-02T09:58:11.713Z,9.19
2016-12-02T10:01:06.390Z,9.05
2016-12-02T10:04:01.124Z,9.09
2016-12-02T10:06:55.891Z,8.97
2016-12-02T10:09:50.515Z,9.04
2016-12-02T10:12:45.721Z,9.21
2016-12-02T10:15:40.426Z,9.14
2016-12-02T10:18:34.853Z,8.99
2016-12-02T10:21:29.420Z,8.86
2016-12-02T10:24:23.919Z,8.81
2016-12-02T10:27:18.361Z,8.80
2016-12-02T10:30:12.866Z,8.74
2016-12-02T10:33:07.513Z,9.00
2016-12-02T10:36:02.027Z,9.03
2016-12-02T10:38:56.610Z,8.98
2016-12-02T10:41:51.193Z,8.83
2016-12-02T10:44:45.760Z,8.84
2016-12-02T10:47:40.292Z,8.51
2016-12-02T10:50:34.841Z,8.44
2016-12-02T10:53:29.353Z,8.15
2016-12-02T10:56:23.860Z,8.09
2016-12-02T10:59:18.401Z,7.90
2016-12-02T11:02:12.975Z,7.84
2016-12-02T11:05:07.415Z,7.65
2016-12-02T11:08:01.772Z,7.48
2016-12-02T11:10:56.324Z,7.37
2016-12-02T11:13:50.864Z,7.30
2016-12-02T11:16:45.287Z,7.15
2016-12-02T11:19:39.680Z,7.11
2016-12-02T11:22:34.047Z,7.10
2016-12-02T11:25:28.627Z,7.12
2016-12-02T11:28:22.962Z,7.09
2016-12-02T11:31:17.472Z,7.07
2016-12-02T11:34:12.969Z,7.14
2016-12-02T11:37:06.613Z,7.13
2016-12-02T11:40:01.085Z,7.18
2016-12-02T11:42:55.572Z,7.15
2016-12-02T11:45:50.027Z,7.11
2016-12-02T11:48:44.557Z,7.06
2016-12-02T11:51:38.972Z,7.06
2016-12-02T11:54:33.447Z,7.03
2016-12-02T11:57:27.879Z,7.02
2016-12-02T12:00:22.380Z,6.98
2016-12-02T12:03:16.926Z,6.92
2016-12-02T12:06:11.370Z,6.88
2016-12-02T12:09:05.884Z,6.88
2016-12-02T12:12:00.365Z,6.93
2016-12-02T12:14:54.795Z,6.97
2016-12-02T12:17:49.276Z,7.00
2016-12-02T12:20:43.720Z,6.97
2016-12-02T12:23:38.186Z,6.97
2016-12-02T12:26:32.668Z,6.97
2016-12-02T12:29:27.138Z,6.92
2016-12-02T12:32:21.649Z,6.87
2016-12-02T12:35:16.077Z,6.78
2016-12-02T12:38:10.418Z,6.73
2016-12-02T12:41:04.798Z,6.72
2016-12-02T12:43:59.334Z,6.68
2016-12-02T12:46:53.951Z,6.67
2016-12-02T12:49:48.418Z,6.65
2016-12-02T12:52:43.433Z,6.66
2016-12-02T12:55:37.851Z,6.67
2016-12-02T12:58:32.248Z,6.69
2016-12-02T13:01:26.881Z,6.69
2016-12-02T13:04:21.365Z,6.69
2016-12-02T13:07:15.901Z,6.69
2016-12-02T13:10:10.306Z,6.72
2016-12-02T13:13:04.687Z,6.73
2016-12-02T13:15:59.192Z,6.74
2016-12-02T13:18:53.584Z,6.75
2016-12-02T13:21:48.097Z,6.77
2016-12-02T13:24:42.516Z,6.77
2016-12-02T13:27:36.940Z,6.74
2016-12-02T13:30:31.435Z,6.69
2016-12-02T13:33:25.933Z,6.66
2016-12-02T13:36:20.367Z,6.59
2016-12-02T13:39:14.846Z,6.59
2016-12-02T13:42:09.287Z,6.52
2016-12-02T13:45:03.771Z,6.48
2016-12-02T13:47:58.150Z,6.48
2016-12-02T13:50:52.506Z,6.47
2016-12-02T13:53:46.887Z,6.42
2016-12-02T13:56:41.250Z,6.40
2016-12-02T13:59:35.695Z,6.37
2016-12-02T14:02:30.017Z,6.37
2016-12-02T14:05:24.414Z,6.34
2016-12-02T14:08:18.923Z,6.33
2016-12-02T14:11:13.415Z,6.31
2016-12-02T14:14:08.705Z,6.29
2016-12-02T14:17:02.139Z,6.30
2016-12-02T14:19:56.545Z,6.28
2016-12-02T14:22:51.206Z,6.27
2016-12-02T14:25:45.565Z,6.24
2016-12-02T14:28:39.970Z,6.21
2016-12-02T14:31:34.337Z,6.16
2016-12-02T14:34:28.764Z,6.14
2016-12-02T14:37:23.102Z,6.10
2016-12-02T14:40:17.552Z,6.04
2016-12-02T14:43:12.243Z,6.01
2016-12-02T14:46:07.639Z,5.98
2016-12-02T14:49:00.864Z,5.94
2016-12-02T14:51:55.322Z,5.90
2016-12-02T14:54:49.733Z,5.84
2016-12-02T14:57:44.226Z,5.78
2016-12-02T15:00:38.576Z,5.74
2016-12-02T15:03:32.744Z,5.69
2016-12-02T15:06:27.153Z,5.65
2016-12-02T15:09:21.575Z,5.61
2016-12-02T15:12:15.807Z,5.56
2016-12-02T15:15:10.219Z,5.51
2016-12-02T15:18:04.408Z,5.48
2016-12-02T15:20:58.687Z,5.43
2016-12-02T15:23:52.978Z,5.38
2016-12-02T15:26:47.434Z,5.33
2016-12-02T15:29:41.688Z,5.27
2016-12-02T15:32:35.970Z,5.23
2016-12-02T15:35:30.315Z,5.17
2016-12-02T15:38:24.571Z,5.13
2016-12-02T15:41:18.762Z,5.08
2016-12-02T15:44:14.082Z,5.04
2016-12-02T15:47:07.368Z,4.98
2016-12-02T15:50:01.824Z,4.95
2016-12-02T15:52:56.108Z,4.93
2016-12-02T15:55:50.429Z,4.88
2016-12-02T15:58:45.591Z,4.85
2016-12-02T16:01:38.921Z,4.81
2016-12-02T16:04:34.227Z,4.78
2016-12-02T16:07:27.462Z,4.76
2016-12-02T16:10:21.780Z,4.71
2016-12-02T16:13:15.982Z,4.67
2016-12-02T16:16:10.207Z,4.63
2016-12-02T16:19:04.421Z,4.58
2016-12-02T16:21:58.645Z,4.53
2016-12-02T16:24:52.853Z,4.49
2016-12-02T16:27:47.059Z,4.45
2016-12-02T16:30:41.290Z,4.42
2016-12-02T16:33:35.573Z,4.40
2016-12-02T16:36:29.908Z,4.35
2016-12-02T16:39:24.111Z,4.32
2016-12-02T16:42:18.267Z,4.29
2016-12-02T16:45:14.055Z,4.25
2016-12-02T16:48:07.467Z,4.22
2016-12-02T16:51:01.736Z,4.17
2016-12-02T16:53:55.945Z,4.14
2016-12-02T16:56:50.135Z,4.12
2016-12-02T16:59:44.372Z,4.09
2016-12-02T17:02:38.577Z,4.06
2016-12-02T17:05:33.858Z,4.01
2016-12-02T17:08:27.071Z,3.99
2016-12-02T17:11:21.359Z,3.97
2016-12-02T17:14:15.540Z,3.96
2016-12-02T17:17:09.762Z,3.93
2016-12-02T17:20:03.950Z,3.89
2016-12-02T17:22:58.275Z,3.85
2016-12-02T17:25:52.492Z,3.83
2016-12-02T17:28:46.803Z,3.81
2016-12-02T17:31:41.050Z,3.78
2016-12-02T17:34:35.330Z,3.77
2016-12-02T17:37:29.530Z,3.76
2016-12-02T17:40:23.781Z,3.74
2016-12-02T17:43:17.910Z,3.68
2016-12-02T17:46:12.156Z,3.63
2016-12-02T17:49:06.402Z,3.58
2016-12-02T17:52:01.062Z,3.55
2016-12-02T17:54:55.847Z,3.54
2016-12-02T17:57:49.954Z,3.56
2016-12-02T18:00:44.213Z,3.57
2016-12-02T18:03:38.579Z,3.60
2016-12-02T18:06:32.649Z,3.58
2016-12-02T18:09:26.989Z,3.58
2016-12-02T18:12:21.318Z,3.56
2016-12-02T18:15:15.688Z,3.54
2016-12-02T18:18:10.978Z,3.53
2016-12-02T18:21:04.097Z,3.52
2016-12-02T18:23:58.287Z,3.48
2016-12-02T18:26:52.428Z,3.51
2016-12-02T18:29:46.578Z,3.51
2016-12-02T18:32:41.722Z,3.46
2016-12-02T18:35:34.902Z,3.43
2016-12-02T18:38:29.046Z,3.40
2016-12-02T18:41:23.255Z,3.39
2016-12-02T18:44:17.434Z,3.39
2016-12-02T18:47:11.580Z,3.34
2016-12-02T18:50:05.738Z,3.25
2016-12-02T18:53:00.015Z,3.18
2016-12-02T18:55:54.153Z,3.13
2016-12-02T18:58:48.302Z,3.08
2016-12-02T19:01:42.449Z,3.02
2016-12-02T19:04:36.467Z,2.97
2016-12-02T19:07:30.681Z,2.90
2016-12-02T19:10:24.764Z,2.84
2016-12-02T19:13:18.827Z,2.83
2016-12-02T19:16:13.064Z,2.81
2016-12-02T19:19:07.273Z,2.81
2016-12-02T19:22:01.296Z,2.79
2016-12-02T19:24:55.432Z,2.75
2016-12-02T19:27:49.599Z,2.74
2016-12-02T19:30:44.751Z,2.72
2016-12-02T19:33:37.843Z,2.72
2016-12-02T19:36:31.972Z,2.68
2016-12-02T19:39:26.175Z,2.66
2016-12-02T19:42:20.392Z,2.62
2016-12-02T19:45:14.594Z,2.58
2016-12-02T19:48:08.691Z,2.56
2016-12-02T19:51:02.842Z,2.53
2016-12-02T19:53:57.026Z,2.52
2016-12-02T19:56:51.307Z,2.48
2016-12-02T19:59:46.339Z,2.48
2016-12-02T20:02:39.426Z,2.46
2016-12-02T20:05:33.523Z,2.45
2016-12-02T20:08:27.661Z,2.43
2016-12-02T20:11:22.769Z,2.41
2016-12-02T20:14:15.804Z,2.39
2016-12-02T20:17:10.918Z,2.39
2016-12-02T20:20:04.118Z,2.35
2016-12-02T20:22:58.236Z,2.31
2016-12-02T20:25:52.321Z,2.27
2016-12-02T20:28:46.520Z,2.26
2016-12-02T20:31:40.649Z,2.27
2016-12-02T20:34:35.845Z,2.25
2016-12-02T20:37:28.927Z,2.21
2016-12-02T20:40:23.046Z,2.21
2016-12-02T20:43:17.243Z,2.20
2016-12-02T20:46:11.592Z,2.20
2016-12-02T20:49:05.776Z,2.15
2016-12-02T20:51:59.794Z,2.12
2016-12-02T20:54:53.839Z,2.09
2016-12-02T20:57:48.102Z,2.06
2016-12-02T21:00:42.261Z,2.04
2016-12-02T21:03:36.244Z,2.05
2016-12-02T21:06:30.874Z,2.04
2016-12-02T21:09:25.404Z,2.01
2016-12-02T21:12:19.452Z,1.98
2016-12-02T21:15:13.677Z,1.95
2016-12-02T21:18:07.705Z,1.96
2016-12-02T21:21:01.777Z,1.94
2016-12-02T21:23:56.115Z,1.91
2016-12-02T21:26:50.252Z,1.87
2016-12-02T21:29:44.357Z,1.90
